Data for 10/15/2013

Time Sea-Level Adjusted Pressure Absolute Pressure Temperature Relative Humidity Dew Point   
(mb) (inHg) (mb) (inHg) (C) (F) (%) (C) (F)
00:05 1028 30.36 858 25.34 1.1 33.9 84 -1.3 29.7
00:10 1028 30.36 858 25.34 1 33.9 85 -1.2 29.9
00:15 1028 30.36 858 25.34 1 33.8 86 -1.1 29.9
00:20 1028 30.36 858 25.34 0.9 33.7 85 -1.3 29.7
00:25 1028 30.36 858 25.34 0.9 33.7 85 -1.3 29.7
00:30 1028 30.36 858 25.34 0.9 33.7 85 -1.3 29.7
00:35 1028 30.36 858 25.34 1 33.8 88 -0.8 30.6
00:40 1028 30.36 858 25.34 1 33.7 90 -0.5 31.1
00:45 1028 30.36 858 25.34 0.7 33.3 92 -0.5 31.2
00:50 1028 30.36 858 25.34 0.6 33.1 93 -0.5 31.2
00:55 1028 30.36 858 25.34 0.6 33 93 -0.5 31.1
01:00 1028 30.36 858 25.34 0.6 33 93 -0.4 31.2
01:05 1028 30.36 858 25.34 0.6 33 93 -0.4 31.2
01:10 1028 30.36 858 25.34 0.6 33 93 -0.4 31.2
01:15 1028 30.36 858 25.34 0.5 33 93 -0.4 31.2
01:20 1028 30.36 858 25.34 0.5 32.9 93 -0.4 31.2
01:25 1028 30.36 858 25.34 0.6 33 93 -0.4 31.3
01:30 1028 30.36 858 25.34 0.6 33.1 93 -0.4 31.3
01:35 1028 30.36 858 25.34 0.6 33 92 -0.6 31
01:40 1028 30.36 858 25.34 0.7 33.2 92 -0.5 31.1
01:45 1029 30.39 858 25.34 0.7 33.2 91 -0.6 30.9
01:50 1028 30.36 858 25.34 0.7 33.2 91 -0.6 30.9
01:55 1028 30.36 858 25.34 0.7 33.3 91 -0.6 30.9
02:00 1028 30.36 858 25.34 0.7 33.3 91 -0.6 30.8
02:05 1028 30.36 858 25.34 0.7 33.3 92 -0.5 31.2
02:10 1028 30.36 858 25.34 0.7 33.3 92 -0.4 31.2
02:15 1028 30.36 858 25.34 0.7 33.2 92 -0.4 31.3
02:20 1028 30.36 858 25.34 0.7 33.2 92 -0.5 31.2
02:25 1028 30.36 857 25.31 0.7 33.3 92 -0.5 31.2
02:30 1028 30.36 857 25.31 0.7 33.2 92 -0.5 31.2
02:35 1028 30.36 857 25.31 0.7 33.2 91 -0.6 31
02:40 1028 30.36 857 25.31 0.6 33.1 91 -0.7 30.7
02:45 1028 30.36 857 25.31 0.7 33.2 91 -0.6 30.8
02:50 1028 30.36 857 25.31 0.6 33.1 91 -0.6 30.9
02:55 1028 30.36 857 25.31 0.6 33.1 92 -0.6 30.9
03:00 1028 30.36 857 25.31 0.6 33.1 92 -0.6 30.9
03:05 1028 30.36 857 25.31 0.6 33 92 -0.6 30.9
03:10 1028 30.36 857 25.31 0.6 33 92 -0.6 30.9
03:15 1028 30.36 857 25.31 0.5 33 92 -0.7 30.8
03:20 1028 30.36 857 25.31 0.5 32.9 92 -0.7 30.7
03:25 1028 30.36 857 25.31 0.5 32.8 92 -0.8 30.6
03:30 1028 30.36 857 25.31 0.4 32.8 92 -0.7 30.7
03:35 1028 30.36 857 25.31 0.4 32.7 92 -0.8 30.6
03:40 1028 30.36 857 25.31 0.3 32.6 92 -0.8 30.6
03:45 1028 30.36 857 25.31 0.3 32.6 93 -0.8 30.6
03:50 1028 30.36 857 25.31 0.2 32.4 92 -0.9 30.4
03:55 1028 30.36 857 25.31 0.1 32.2 92 -1 30.1
04:00 1028 30.36 857 25.31 0.1 32.1 91 -1.3 29.7
04:05 1028 30.36 857 25.31 -0 32 91 -1.3 29.7
04:10 1028 30.36 857 25.31 0 32 91 -1.3 29.6
04:15 1028 30.36 857 25.31 -0.1 31.9 90 -1.4 29.4
04:20 1028 30.36 857 25.31 -0.1 31.7 90 -1.6 29.2
04:25 1028 30.36 857 25.31 -0.2 31.6 90 -1.6 29.1
04:30 1028 30.36 857 25.31 -0.3 31.5 90 -1.7 29
04:35 1028 30.36 857 25.31 -0.3 31.5 91 -1.6 29
04:40 1028 30.36 857 25.31 -0.3 31.4 90 -1.7 28.9
04:45 1028 30.36 857 25.31 -0.4 31.4 91 -1.6 29.1
04:50 1028 30.36 857 25.31 -0.4 31.3 91 -1.7 29
04:55 1028 30.36 857 25.31 -0.4 31.3 91 -1.8 28.8
05:00 1028 30.36 857 25.31 -0.4 31.2 91 -1.8 28.8
05:05 1028 30.36 857 25.31 -0.5 31 91 -1.8 28.7
05:10 1028 30.36 857 25.31 -0.6 31 91 -1.8 28.8
05:15 1028 30.36 857 25.31 -0.5 31.1 91 -1.8 28.8
05:20 1028 30.36 857 25.31 -0.5 31.1 91 -1.8 28.7
05:25 1028 30.36 857 25.31 -0.5 31.1 90 -1.9 28.6
05:30 1028 30.36 857 25.31 -0.5 31.1 91 -1.8 28.8
05:35 1028 30.36 857 25.31 -0.5 31.2 91 -1.8 28.7
05:40 1028 30.36 857 25.31 -0.3 31.5 90 -1.8 28.8
05:45 1028 30.36 857 25.31 -0.2 31.7 89 -1.8 28.8
05:50 1028 30.36 857 25.31 -0.3 31.5 89 -1.9 28.6
05:55 1028 30.36 857 25.31 -0.3 31.4 89 -2 28.4
06:00 1028 30.36 857 25.31 -0.3 31.4 88 -2.1 28.2
06:05 1028 30.36 857 25.31 -0.4 31.3 87 -2.2 28
06:10 1028 30.36 857 25.31 -0.4 31.3 87 -2.3 27.9
06:15 1028 30.36 857 25.31 -0.4 31.4 88 -2.1 28.2
06:20 1028 30.36 857 25.31 -0.4 31.3 87 -2.2 28
06:25 1028 30.36 857 25.31 -0.3 31.4 88 -2.1 28.1
06:30 1028 30.36 857 25.31 -0.3 31.4 87 -2.2 28
06:35 1028 30.36 857 25.31 -0.3 31.4 86 -2.3 27.8
06:40 1028 30.36 857 25.31 -0.4 31.3 86 -2.5 27.5
06:45 1028 30.36 857 25.31 -0.3 31.4 85 -2.6 27.3
06:50 1028 30.36 857 25.31 -0.3 31.4 85 -2.6 27.3
06:55 1028 30.36 857 25.31 -0.4 31.3 84 -2.7 27.1
07:00 1028 30.36 857 25.31 -0.2 31.7 81 -3.1 26.4
07:05 1028 30.36 857 25.31 -0 31.9 80 -3 26.6
07:10 1028 30.36 857 25.31 0.1 32.2 79 -3 26.6
07:15 1028 30.36 857 25.31 0.3 32.5 79 -2.9 26.7
07:20 1028 30.36 857 25.31 0.1 32.1 79 -3.1 26.4
07:25 1028 30.36 857 25.31 -0 32 79 -3.2 26.2
07:30 1028 30.36 857 25.31 0.1 32.1 75 -3.8 25.1
07:35 1028 30.36 857 25.31 -0 32 76 -3.7 25.3
07:40 1028 30.36 857 25.31 -0 32 77 -3.6 25.6
07:45 1028 30.36 857 25.31 0.3 32.6 75 -3.6 25.5
07:50 1028 30.36 857 25.31 1.3 34.3 71 -3.3 26
07:55 1028 30.36 857 25.31 1.9 35.4 70 -3 26.6
08:00 1028 30.36 857 25.31 2.4 36.3 67 -3 26.6
08:05 1028 30.36 857 25.31 2.7 36.9 65 -3.2 26.2
08:10 1028 30.36 857 25.31 3.1 37.5 65 -3 26.7
08:15 1028 30.36 857 25.31 3.2 37.8 65 -2.7 27.1
08:20 1028 30.36 857 25.31 2.7 36.9 68 -2.6 27.3
08:25 1028 30.36 857 25.31 2.3 36.2 67 -3.2 26.3
08:30 1028 30.36 857 25.31 3.1 37.6 62 -3.4 25.9
08:35 1028 30.36 857 25.31 3.7 38.6 61 -3 26.5
08:40 1028 30.36 857 25.31 3.6 38.5 61 -3.1 26.4
08:45 1028 30.36 857 25.31 3.9 39 61 -2.9 26.8
08:50 1028 30.36 857 25.31 3.8 38.8 62 -2.8 26.9
08:55 1028 30.36 857 25.31 3.2 37.8 65 -2.8 27
09:00 1028 30.36 857 25.31 3.4 38.2 65 -2.5 27.5
09:05 1028 30.36 857 25.31 3.8 38.8 67 -1.8 28.7
09:10 1028 30.36 857 25.31 3.7 38.7 65 -2.2 28
09:15 1028 30.36 857 25.31 4.3 39.7 63 -2.2 28.1
09:20 1028 30.36 857 25.31 4.2 39.5 67 -1.4 29.5
09:25 1028 30.36 857 25.31 4.3 39.8 63 -2 28.4
09:30 1028 30.36 857 25.31 4.4 40 65 -1.6 29.1
09:35 1028 30.36 857 25.31 4.4 39.9 64 -1.9 28.6
09:40 1028 30.36 857 25.31 4 39.2 66 -1.7 28.9
09:45 1028 30.36 857 25.31 3.7 38.7 65 -2.2 28
09:50 1028 30.36 857 25.31 4 39.3 63 -2.3 27.8
09:55 1028 30.36 857 25.31 4.7 40.4 64 -1.7 29
10:00 1028 30.36 857 25.31 4.6 40.2 62 -2 28.5
10:05 1028 30.36 857 25.31 4.6 40.3 59 -2.8 27
10:10 1028 30.36 857 25.31 4.1 39.5 63 -2.2 28.1
10:15 1028 30.36 857 25.31 4.5 40.2 62 -2.2 28.1
10:20 1028 30.36 857 25.31 5.4 41.7 56 -2.6 27.3
10:25 1028 30.36 857 25.31 5.1 41.1 60 -2 28.3
10:30 1028 30.36 857 25.31 5.4 41.7 59 -2 28.3
10:35 1027 30.33 857 25.31 5.6 42.1 56 -2.6 27.4
10:40 1027 30.33 857 25.31 5.7 42.3 54 -2.8 27
10:45 1027 30.33 857 25.31 5.4 41.7 55 -2.9 26.8
10:50 1027 30.33 857 25.31 6.2 43.2 51 -3.2 26.2
10:55 1027 30.33 856 25.28 6.4 43.6 53 -2.4 27.7
11:00 1027 30.33 856 25.28 6.3 43.4 52 -2.7 27.1
11:05 1027 30.33 856 25.28 6.5 43.7 50 -3.1 26.3
11:10 1027 30.33 856 25.28 6.2 43.2 52 -3 26.6
11:15 1027 30.33 856 25.28 6.9 44.4 50 -2.7 27.1
11:20 1027 30.33 856 25.28 7.2 44.9 51 -2.4 27.7
11:25 1027 30.33 856 25.28 7 44.6 52 -2.2 28
11:30 1027 30.33 856 25.28 7.6 45.7 48 -2.7 27.1
11:35 1027 30.33 856 25.28 7.8 46 49 -2.3 27.8
11:40 1027 30.33 856 25.28 7.7 45.9 45 -3.6 25.6
11:45 1027 30.33 856 25.28 7.7 45.8 44 -3.7 25.3
11:50 1027 30.33 856 25.28 7.3 45.2 48 -3 26.6
11:55 1027 30.33 856 25.28 7.4 45.3 45 -3.8 25.2
12:00 1027 30.33 856 25.28 7.6 45.7 46 -3.2 26.2
12:05 1026 30.3 856 25.28 7.6 45.7 46 -3.4 26
12:10 1026 30.3 856 25.28 7.1 44.8 47 -3.3 26.1
12:15 1026 30.3 855 25.25 7.8 46 46 -3.2 26.3
12:20 1026 30.3 855 25.25 8.3 46.9 44 -3.2 26.2
12:25 1026 30.3 855 25.25 8.7 47.7 42 -3.4 25.8
12:30 1026 30.3 855 25.25 8.5 47.2 43 -3.5 25.7
12:35 1026 30.3 855 25.25 8.3 46.9 45 -2.8 26.9
12:40 1026 30.3 855 25.25 8.1 46.5 45 -3.1 26.4
12:45 1026 30.3 855 25.25 7.8 46 46 -3 26.6
12:50 1026 30.3 855 25.25 7.7 45.9 48 -2.5 27.4
12:55 1026 30.3 855 25.25 8.1 46.5 47 -2.7 27.2
13:00 1026 30.3 855 25.25 8.2 46.8 44 -3.2 26.2
13:05 1026 30.3 855 25.25 8.5 47.3 44 -3 26.5
13:10 1025 30.27 855 25.25 8.8 47.9 42 -3.3 26.1
13:15 1025 30.27 855 25.25 8.8 47.9 43 -3.1 26.3
13:20 1025 30.27 855 25.25 8.9 48.1 42 -3.2 26.3
13:25 1025 30.27 854 25.22 8.5 47.2 44 -3 26.6
13:30 1025 30.27 854 25.22 8.7 47.7 42 -3.4 25.9
13:35 1025 30.27 854 25.22 8.5 47.4 44 -3.1 26.5
13:40 1025 30.27 854 25.22 8.2 46.7 44 -3.4 25.9
13:45 1025 30.27 854 25.22 8.7 47.6 42 -3.4 25.9
13:50 1025 30.27 854 25.22 8 46.4 45 -3.2 26.2
13:55 1025 30.27 854 25.22 7.8 46 42 -4.4 24
14:00 1025 30.27 854 25.22 7.9 46.3 46 -2.8 26.9
14:05 1025 30.27 854 25.22 7.9 46.3 42 -4.1 24.7
14:10 1025 30.27 854 25.22 8.9 48 40 -4 24.7
14:15 1025 30.27 854 25.22 9.3 48.7 39 -3.9 25.1
14:20 1025 30.27 854 25.22 9 48.2 41 -3.4 26
14:25 1025 30.27 854 25.22 8.2 46.8 44 -3.2 26.2
14:30 1025 30.27 854 25.22 8.3 47 41 -4.3 24.3
14:35 1025 30.27 854 25.22 8.3 47 42 -3.7 25.3
14:40 1024 30.24 854 25.22 7.6 45.8 43 -4.1 24.7
14:45 1024 30.24 854 25.22 7.4 45.2 44 -4.2 24.5
14:50 1024 30.24 853 25.19 8.2 46.8 40 -4.6 23.8
14:55 1024 30.24 853 25.19 8.8 47.8 40 -4 24.8
15:00 1024 30.24 853 25.19 8.8 47.9 38 -4.8 23.4
15:05 1024 30.24 853 25.19 9 48.2 39 -4.4 24.1
15:10 1024 30.24 853 25.19 9.8 49.7 36 -4.3 24.2
15:15 1024 30.24 853 25.19 9.8 49.6 37 -4.2 24.5
15:20 1024 30.24 853 25.19 9.8 49.7 36 -4.5 24
15:25 1024 30.24 853 25.19 9.7 49.4 37 -4.4 24
15:30 1024 30.24 853 25.19 9.6 49.3 37 -4.4 24.1
15:35 1024 30.24 853 25.19 9.3 48.8 40 -3.6 25.5
15:40 1024 30.24 853 25.19 8.2 46.8 40 -4.6 23.7
15:45 1024 30.24 853 25.19 9.1 48.3 37 -4.7 23.5
15:50 1024 30.24 853 25.19 9.4 48.9 36 -4.8 23.3
15:55 1024 30.24 853 25.19 9.7 49.5 36 -4.7 23.6
16:00 1024 30.24 853 25.19 9.9 49.8 35 -4.8 23.3
16:05 1024 30.24 853 25.19 9.6 49.3 37 -4.4 24.1
16:10 1024 30.24 853 25.19 9.3 48.7 36 -5.1 22.8
16:15 1024 30.24 853 25.19 8.7 47.6 38 -4.9 23.2
16:20 1024 30.24 853 25.19 8.3 47 38 -5 22.9
16:25 1024 30.24 853 25.19 8.4 47.2 38 -5 23
16:30 1024 30.24 853 25.19 8.8 47.9 38 -4.8 23.4
16:35 1023 30.21 853 25.19 8.3 46.9 39 -4.8 23.4
16:40 1023 30.21 853 25.19 8.7 47.7 38 -4.8 23.4
16:45 1023 30.21 853 25.19 9.2 48.5 37 -4.9 23.3
16:50 1023 30.21 852 25.16 8.9 48 38 -4.5 23.9
16:55 1023 30.21 852 25.16 8.5 47.3 39 -4.5 23.9
17:00 1023 30.21 852 25.16 8.7 47.7 38 -4.8 23.4
17:05 1023 30.21 852 25.16 9 48.1 38 -4.6 23.8
17:10 1023 30.21 852 25.16 8.8 47.9 39 -4.2 24.4
17:15 1023 30.21 852 25.16 8.4 47.2 40 -4.3 24.2
17:20 1023 30.21 852 25.16 8.3 46.9 42 -4 24.8
17:25 1023 30.21 852 25.16 7.7 45.8 43 -4.2 24.4
17:30 1023 30.21 852 25.16 6.8 44.3 45 -4.3 24.2
17:35 1023 30.21 852 25.16 6.3 43.4 46 -4.5 24
17:40 1023 30.21 852 25.16 6 42.8 48 -4.3 24.3
17:45 1023 30.21 852 25.16 5.7 42.3 59 -1.7 28.9
17:50 1023 30.21 852 25.16 4.9 40.9 63 -1.6 29.2
17:55 1023 30.21 852 25.16 4.4 39.9 65 -1.6 29.1
18:00 1023 30.21 852 25.16 3.9 39.1 67 -1.7 28.9
18:05 1023 30.21 852 25.16 3.6 38.4 67 -2 28.4
18:10 1023 30.21 852 25.16 3.4 38.1 68 -2 28.3
18:15 1023 30.21 852 25.16 3.4 38.2 68 -1.9 28.5
18:20 1023 30.21 852 25.16 3.2 37.7 69 -1.9 28.6
18:25 1023 30.21 852 25.16 2.9 37.3 71 -1.9 28.6
18:30 1023 30.21 852 25.16 2.6 36.8 72 -1.9 28.6
18:35 1023 30.21 852 25.16 2.5 36.5 73 -1.9 28.6
18:40 1023 30.21 852 25.16 2.3 36.1 74 -1.9 28.5
18:45 1023 30.21 852 25.16 2.2 36 74 -2 28.5
18:50 1023 30.21 852 25.16 2 35.6 75 -1.9 28.5
18:55 1023 30.21 852 25.16 1.8 35.2 75 -2.1 28.2
19:00 1023 30.21 852 25.16 1.8 35.2 74 -2.4 27.7
19:05 1023 30.21 852 25.16 1.8 35.3 73 -2.5 27.6
19:10 1023 30.21 852 25.16 1.9 35.4 73 -2.5 27.5
19:15 1023 30.21 852 25.16 1.9 35.5 71 -2.7 27.1
19:20 1023 30.21 852 25.16 1.9 35.4 70 -3 26.5
19:25 1023 30.21 852 25.16 1.9 35.4 70 -2.9 26.7
19:30 1023 30.21 852 25.16 1.6 34.9 70 -3.4 25.9
19:35 1023 30.21 852 25.16 1.3 34.4 70 -3.6 25.6
19:40 1023 30.21 852 25.16 1.4 34.5 69 -3.7 25.4
19:45 1023 30.21 852 25.16 1.3 34.4 69 -3.6 25.5
19:50 1023 30.21 852 25.16 1.4 34.5 69 -3.7 25.3
19:55 1023 30.21 852 25.16 1.4 34.5 69 -3.6 25.4
20:00 1023 30.21 852 25.16 1.2 34.2 69 -3.9 24.9
20:05 1023 30.21 852 25.16 1.2 34.2 69 -3.9 25
20:10 1023 30.21 852 25.16 1.3 34.3 67 -4.2 24.4
20:15 1023 30.21 852 25.16 1.2 34.2 68 -4.1 24.7
20:20 1023 30.21 852 25.16 1.2 34.2 68 -4 24.8
20:25 1023 30.21 852 25.16 1.1 34 69 -4 24.8
20:30 1022 30.18 852 25.16 1 33.8 69 -4 24.7
20:35 1022 30.18 852 25.16 1 33.7 69 -4.1 24.6
20:40 1022 30.18 852 25.16 0.9 33.7 69 -4 24.8
20:45 1022 30.18 852 25.16 0.7 33.3 71 -3.9 25
20:50 1022 30.18 852 25.16 0.6 33.2 71 -4.1 24.7
20:55 1022 30.18 852 25.16 0.7 33.3 70 -4.1 24.6
21:00 1022 30.18 852 25.16 0.9 33.6 67 -4.5 24
21:05 1022 30.18 852 25.16 1.6 34.8 66 -4.2 24.4
21:10 1022 30.18 852 25.16 1.3 34.4 66 -4.4 24.1
21:15 1022 30.18 852 25.16 1.5 34.7 66 -4.3 24.3
21:20 1022 30.18 852 25.16 1.6 34.8 64 -4.6 23.7
21:25 1022 30.18 851 25.13 1.8 35.2 63 -4.6 23.8
21:30 1022 30.18 851 25.13 2 35.6 60 -4.9 23.1
21:35 1022 30.18 851 25.13 2.3 36.2 60 -4.7 23.6
21:40 1022 30.18 851 25.13 2.3 36.2 60 -4.7 23.5
21:45 1022 30.18 851 25.13 2.1 35.8 61 -4.6 23.7
21:50 1022 30.18 851 25.13 1.8 35.3 63 -4.6 23.8
21:55 1022 30.18 851 25.13 1.8 35.2 63 -4.6 23.7
22:00 1022 30.18 851 25.13 1.9 35.4 62 -4.7 23.6
22:05 1022 30.18 851 25.13 1.9 35.5 61 -4.7 23.5
22:10 1022 30.18 851 25.13 1.8 35.3 63 -4.4 24
22:15 1022 30.18 851 25.13 1.6 34.8 64 -4.5 23.9
22:20 1022 30.18 851 25.13 1.2 34.2 66 -4.5 24
22:25 1022 30.18 851 25.13 1.2 34.1 62 -5.3 22.4
22:30 1022 30.18 851 25.13 1.9 35.3 62 -4.6 23.6
22:35 1022 30.18 851 25.13 2 35.5 63 -4.4 24
22:40 1022 30.18 851 25.13 1.7 35.1 64 -4.5 24
22:45 1022 30.18 851 25.13 1.4 34.5 65 -4.6 23.8
22:50 1022 30.18 851 25.13 1.4 34.5 65 -4.5 23.8
22:55 1022 30.18 851 25.13 1.2 34.1 67 -4.4 24.1
23:00 1022 30.18 851 25.13 0.8 33.5 68 -4.5 23.9
23:05 1022 30.18 851 25.13 0.6 33 69 -4.5 23.8
23:10 1022 30.18 851 25.13 0.1 32.2 70 -4.7 23.6
23:15 1022 30.18 851 25.13 0.2 32.3 69 -4.8 23.4
23:20 1022 30.18 851 25.13 0.2 32.3 68 -5.1 22.8
23:25 1022 30.18 851 25.13 0.5 32.8 67 -4.9 23.2
23:30 1022 30.18 851 25.13 0.4 32.8 69 -4.7 23.5
23:35 1022 30.18 851 25.13 0.2 32.3 69 -4.8 23.3
23:40 1022 30.18 851 25.13 0.4 32.7 66 -5.3 22.5
23:45 1022 30.18 851 25.13 0.9 33.6 66 -4.8 23.4
23:50 1022 30.18 851 25.13 0.9 33.6 66 -4.7 23.5
23:55 1022 30.18 851 25.13 0.6 33.1 67 -4.7 23.5
24:00 1022 30.18 851 25.13 0.4 32.7 69 -4.7 23.5